createdAt,value
2018-03-26T00:02:13.166Z,84.40
2018-03-26T00:04:40.726Z,63.57
2018-03-26T00:07:08.361Z,69.47
2018-03-26T00:09:35.963Z,54.50
2018-03-26T00:12:03.536Z,51.50
2018-03-26T00:14:31.115Z,53.57
2018-03-26T00:16:58.743Z,52.87
2018-03-26T00:19:26.310Z,40.33
2018-03-26T00:21:53.899Z,42.53
2018-03-26T00:24:21.474Z,43.37
2018-03-26T00:26:49.038Z,35.93
2018-03-26T00:29:16.639Z,35.03
2018-03-26T00:31:44.202Z,29.90
2018-03-26T00:34:11.887Z,29.43
2018-03-26T00:36:39.465Z,28.20
2018-03-26T00:39:07.065Z,32.23
2018-03-26T00:41:34.707Z,29.13
2018-03-26T00:44:02.285Z,26.33
2018-03-26T00:46:29.867Z,31.83
2018-03-26T00:48:57.499Z,29.93
2018-03-26T00:51:25.124Z,29.97
2018-03-26T00:53:52.681Z,30.60
2018-03-26T00:56:20.239Z,27.37
2018-03-26T00:58:47.867Z,26.50
2018-03-26T01:01:15.438Z,27.07
2018-03-26T01:03:43.070Z,23.83
2018-03-26T01:06:10.626Z,22.47
2018-03-26T01:08:38.252Z,22.83
2018-03-26T01:11:05.880Z,25.60
2018-03-26T01:13:33.446Z,26.40
2018-03-26T01:16:01.026Z,27.00
2018-03-26T01:18:28.651Z,28.97
2018-03-26T01:20:56.232Z,34.70
2018-03-26T01:23:23.802Z,36.13
2018-03-26T01:25:51.431Z,41.80
2018-03-26T01:28:19.012Z,35.17
2018-03-26T01:30:46.575Z,37.03
2018-03-26T01:33:14.144Z,34.33
2018-03-26T01:35:41.702Z,30.77
2018-03-26T01:38:09.345Z,33.37
2018-03-26T01:40:36.923Z,34.70
2018-03-26T01:43:04.543Z,31.67
2018-03-26T01:45:32.122Z,36.53
2018-03-26T01:47:59.682Z,42.97
2018-03-26T01:50:27.296Z,34.70
2018-03-26T01:52:54.902Z,31.17
2018-03-26T01:55:22.478Z,34.20
2018-03-26T01:57:50.042Z,35.97
2018-03-26T02:00:17.667Z,38.83
2018-03-26T02:02:45.243Z,36.70
2018-03-26T02:05:12.811Z,37.00
2018-03-26T02:07:40.455Z,47.73
2018-03-26T02:10:08.086Z,43.37
2018-03-26T02:12:35.714Z,50.93
2018-03-26T02:15:03.315Z,53.10
2018-03-26T02:17:30.938Z,52.77
2018-03-26T02:19:58.572Z,45.93
2018-03-26T02:22:26.147Z,48.27
2018-03-26T02:24:53.723Z,42.20
2018-03-26T02:27:21.360Z,38.80
2018-03-26T02:29:48.925Z,41.83
2018-03-26T02:32:16.482Z,32.97
2018-03-26T02:34:44.109Z,34.50
2018-03-26T02:37:11.670Z,35.17
2018-03-26T02:39:39.309Z,31.67
2018-03-26T02:42:06.894Z,38.87
2018-03-26T02:44:34.532Z,28.67
2018-03-26T02:47:02.146Z,37.33
2018-03-26T02:49:29.713Z,41.37
2018-03-26T02:51:57.338Z,48.87
2018-03-26T02:54:24.983Z,39.63
2018-03-26T02:56:52.554Z,50.47
2018-03-26T02:59:20.192Z,40.10
2018-03-26T03:01:47.815Z,39.97
2018-03-26T03:04:15.414Z,35.73
2018-03-26T03:06:42.997Z,38.17
2018-03-26T03:09:10.585Z,41.77
2018-03-26T03:11:38.168Z,43.70
2018-03-26T03:14:05.811Z,55.67
2018-03-26T03:16:33.436Z,69.47
2018-03-26T03:19:01.019Z,73.13
2018-03-26T03:21:28.583Z,70.70
2018-03-26T03:23:56.251Z,57.83
2018-03-26T03:26:23.874Z,60.20
2018-03-26T03:28:51.455Z,62.03
2018-03-26T03:31:19.092Z,69.37
2018-03-26T03:33:46.657Z,59.17
2018-03-26T03:36:14.307Z,58.13
2018-03-26T03:38:41.896Z,54.67
2018-03-26T03:41:09.466Z,68.97
2018-03-26T03:43:37.035Z,78.13
2018-03-26T03:46:04.606Z,95.07
2018-03-26T03:48:32.304Z,63.73
2018-03-26T03:50:59.926Z,83.27
2018-03-26T03:53:27.490Z,141.03
2018-03-26T03:55:55.064Z,111.60
2018-03-26T03:58:22.626Z,96.83
2018-03-26T04:00:50.311Z,88.28
2018-03-26T04:03:17.892Z,82.97
2018-03-26T04:05:45.461Z,73.80
2018-03-26T04:08:13.094Z,124.37
2018-03-26T04:10:40.653Z,145.20
2018-03-26T04:13:08.282Z,143.17
2018-03-26T04:15:35.926Z,108.97
2018-03-26T04:18:03.546Z,72.23
2018-03-26T04:20:31.170Z,58.27
2018-03-26T04:22:58.730Z,95.43
2018-03-26T04:25:26.359Z,141.70
2018-03-26T04:27:53.923Z,90.10
2018-03-26T04:30:21.551Z,66.37
2018-03-26T04:32:49.118Z,74.57
2018-03-26T04:35:16.683Z,90.03
2018-03-26T04:37:44.372Z,61.63
2018-03-26T04:40:11.990Z,70.70
2018-03-26T04:42:39.554Z,58.90
2018-03-26T04:45:07.191Z,57.80
2018-03-26T04:47:34.764Z,136.37
2018-03-26T04:50:02.382Z,50.50
2018-03-26T04:52:29.951Z,58.10
2018-03-26T04:54:57.515Z,65.23
2018-03-26T04:57:25.142Z,59.63
2018-03-26T04:59:52.702Z,43.17
2018-03-26T05:02:20.388Z,43.17
2018-03-26T05:04:48.008Z,48.20
2018-03-26T05:07:15.635Z,68.30
2018-03-26T05:09:43.290Z,73.07
2018-03-26T05:12:10.846Z,62.70
2018-03-26T05:14:38.473Z,82.70
2018-03-26T05:17:06.050Z,98.93
2018-03-26T05:19:33.674Z,95.67
2018-03-26T05:22:01.246Z,81.03
2018-03-26T05:24:28.815Z,54.70
2018-03-26T05:26:56.433Z,51.23
2018-03-26T05:29:23.998Z,57.97
2018-03-26T05:31:51.601Z,63.23
2018-03-26T05:34:19.184Z,54.87
2018-03-26T05:36:46.750Z,53.70
2018-03-26T05:39:14.459Z,67.93
2018-03-26T05:41:42.079Z,64.67
2018-03-26T05:44:09.704Z,75.40
2018-03-26T05:46:37.331Z,82.60
2018-03-26T05:49:04.996Z,105.60
2018-03-26T05:51:32.630Z,130.57
2018-03-26T05:54:00.194Z,95.33
2018-03-26T05:56:27.758Z,66.00
2018-03-26T05:58:55.326Z,67.57
2018-03-26T06:01:22.914Z,63.00
2018-03-26T06:03:50.632Z,64.83
2018-03-26T06:06:18.199Z,46.83
2018-03-26T06:08:45.776Z,57.73
2018-03-26T06:11:13.409Z,50.67
2018-03-26T06:13:40.991Z,58.97
2018-03-26T06:16:08.688Z,57.63
2018-03-26T06:18:36.286Z,60.60
2018-03-26T06:21:03.882Z,56.43
2018-03-26T06:23:31.607Z,59.50
2018-03-26T06:25:59.206Z,60.47
2018-03-26T06:28:26.932Z,65.60
2018-03-26T06:30:54.599Z,65.03
2018-03-26T06:33:22.194Z,70.63
2018-03-26T06:35:49.802Z,61.67
2018-03-26T06:38:22.256Z,67.80
2018-03-26T06:40:49.900Z,67.40
2018-03-26T06:43:17.559Z,72.80
2018-03-26T06:45:45.243Z,77.97
2018-03-26T06:48:12.807Z,76.90
2018-03-26T06:50:40.422Z,72.07
2018-03-26T06:53:08.047Z,80.00
2018-03-26T06:55:35.606Z,87.63
2018-03-26T06:58:03.174Z,85.40
2018-03-26T07:00:30.796Z,75.97
2018-03-26T07:02:58.424Z,83.50
2018-03-26T07:05:26.135Z,84.03
2018-03-26T07:07:53.693Z,75.97
2018-03-26T07:10:21.327Z,78.40
2018-03-26T07:12:48.943Z,87.27
2018-03-26T07:15:16.538Z,85.20
2018-03-26T07:17:44.102Z,80.40
2018-03-26T07:20:11.770Z,74.03
2018-03-26T07:22:39.341Z,81.20
2018-03-26T07:25:06.907Z,81.63
2018-03-26T07:27:34.478Z,66.47
2018-03-26T07:30:02.055Z,73.47
2018-03-26T07:32:29.630Z,70.27
2018-03-26T07:34:57.198Z,76.20
2018-03-26T07:37:24.874Z,61.57
2018-03-26T07:39:52.496Z,71.10
2018-03-26T07:42:20.062Z,69.60
2018-03-26T07:44:47.639Z,69.93
2018-03-26T07:47:15.199Z,67.50
2018-03-26T07:49:42.765Z,72.97
2018-03-26T07:52:10.379Z,74.30
2018-03-26T07:54:38.000Z,66.07
2018-03-26T07:57:05.634Z,67.30
2018-03-26T07:59:33.190Z,60.30
2018-03-26T08:02:00.762Z,59.10
2018-03-26T08:04:28.343Z,70.30
2018-03-26T08:06:55.975Z,65.90
2018-03-26T08:09:23.598Z,67.57
2018-03-26T08:11:51.217Z,61.40
2018-03-26T08:14:18.778Z,62.67
2018-03-26T08:16:46.418Z,62.97
2018-03-26T08:19:14.056Z,67.63
2018-03-26T08:21:41.682Z,68.67
2018-03-26T08:24:09.258Z,77.13
2018-03-26T08:26:36.828Z,73.77
2018-03-26T08:29:04.549Z,112.40
2018-03-26T08:31:32.112Z,76.50
2018-03-26T08:33:59.674Z,89.37
2018-03-26T08:36:27.269Z,90.77
2018-03-26T08:38:54.849Z,74.63
2018-03-26T08:41:22.432Z,68.80
2018-03-26T08:43:49.998Z,66.00
2018-03-26T08:46:17.622Z,68.70
2018-03-26T08:48:45.254Z,63.90
2018-03-26T08:51:12.832Z,73.30
2018-03-26T08:53:40.464Z,71.47
2018-03-26T08:56:08.002Z,67.80
2018-03-26T08:58:35.575Z,61.37
2018-03-26T09:01:03.191Z,62.07
2018-03-26T09:03:30.809Z,68.83
2018-03-26T09:05:58.370Z,66.30
2018-03-26T09:08:25.934Z,72.60
2018-03-26T09:10:53.510Z,84.47
2018-03-26T09:13:21.074Z,78.70
2018-03-26T09:15:48.683Z,64.23
2018-03-26T09:18:16.243Z,93.47
2018-03-26T09:20:44.614Z,78.77
2018-03-26T09:23:12.283Z,78.87
2018-03-26T09:25:39.898Z,81.80
2018-03-26T09:28:07.536Z,92.30
2018-03-26T09:30:35.107Z,80.37
2018-03-26T09:33:02.734Z,83.27
2018-03-26T09:35:30.308Z,100.83
2018-03-26T09:37:57.925Z,116.73
2018-03-26T09:40:25.486Z,99.40
2018-03-26T09:42:53.056Z,98.50
2018-03-26T09:45:20.626Z,73.30
2018-03-26T09:47:48.202Z,95.13
2018-03-26T09:50:15.814Z,83.80
2018-03-26T09:52:43.375Z,95.47
2018-03-26T09:55:11.068Z,114.93
2018-03-26T09:57:38.686Z,87.23
2018-03-26T10:00:06.324Z,110.13
2018-03-26T10:02:33.894Z,82.70
2018-03-26T10:05:01.457Z,98.83
2018-03-26T10:07:29.034Z,58.00
2018-03-26T10:09:56.654Z,57.23
2018-03-26T10:12:24.274Z,94.30
2018-03-26T10:14:51.894Z,69.73
2018-03-26T10:17:19.504Z,69.33
2018-03-26T10:19:47.139Z,63.90
2018-03-26T10:22:14.802Z,72.23
2018-03-26T10:24:42.378Z,69.37
2018-03-26T10:27:10.006Z,88.90
2018-03-26T10:29:37.644Z,60.03
2018-03-26T10:32:05.206Z,60.43
2018-03-26T10:34:32.826Z,62.03
2018-03-26T10:37:00.396Z,80.13
2018-03-26T10:39:28.019Z,68.87
2018-03-26T10:41:55.582Z,65.43
2018-03-26T10:44:23.206Z,93.67
2018-03-26T10:46:50.895Z,57.93
2018-03-26T10:49:18.458Z,67.10
2018-03-26T10:51:46.096Z,56.17
2018-03-26T10:54:13.732Z,58.43
2018-03-26T10:56:41.355Z,68.13
2018-03-26T10:59:08.931Z,56.50
2018-03-26T11:01:36.504Z,57.13
2018-03-26T11:04:04.173Z,68.93
2018-03-26T11:06:31.746Z,55.10
2018-03-26T11:08:59.322Z,50.90
2018-03-26T11:11:26.958Z,63.13
2018-03-26T11:13:54.524Z,61.50
2018-03-26T11:16:22.160Z,59.60
2018-03-26T11:18:49.735Z,74.47
2018-03-26T11:21:17.441Z,75.13
2018-03-26T11:23:45.082Z,69.50
2018-03-26T11:26:12.669Z,68.47
2018-03-26T11:28:40.251Z,80.67
2018-03-26T11:31:07.886Z,102.87
2018-03-26T11:33:35.523Z,71.37
2018-03-26T11:36:03.175Z,72.60
2018-03-26T11:38:30.755Z,63.27
2018-03-26T11:40:58.404Z,54.70
2018-03-26T11:43:25.987Z,67.13
2018-03-26T11:45:53.631Z,69.00
2018-03-26T11:48:21.275Z,61.40
2018-03-26T11:50:48.904Z,66.90
2018-03-26T11:53:16.548Z,61.47
2018-03-26T11:55:44.180Z,63.47
2018-03-26T11:58:11.802Z,69.80
2018-03-26T12:00:39.443Z,74.57
2018-03-26T12:03:07.410Z,72.17
2018-03-26T12:05:35.051Z,79.77
2018-03-26T12:08:02.698Z,90.93
2018-03-26T12:10:30.282Z,75.53
2018-03-26T12:12:57.861Z,81.27
2018-03-26T12:15:25.495Z,77.97
2018-03-26T12:17:53.084Z,100.67
2018-03-26T12:20:32.458Z,92.60
2018-03-26T12:23:06.800Z,124.67
2018-03-26T12:25:34.440Z,102.47
2018-03-26T12:28:13.929Z,96.00
2018-03-26T12:30:41.562Z,86.80
2018-03-26T12:33:09.227Z,97.03
2018-03-26T12:36:00.447Z,102.77
2018-03-26T12:38:28.018Z,97.47
2018-03-26T12:40:55.699Z,110.97
2018-03-26T12:43:23.278Z,88.07
2018-03-26T12:46:02.656Z,95.73
2018-03-26T12:48:30.751Z,91.07
2018-03-26T12:51:10.078Z,71.47
2018-03-26T12:53:37.708Z,85.00
2018-03-26T12:56:05.335Z,94.10
2018-03-26T12:58:51.889Z,74.67
2018-03-26T13:01:31.142Z,77.80
2018-03-26T13:03:58.722Z,95.27
2018-03-26T13:06:26.304Z,101.67
2018-03-26T13:08:53.939Z,91.13
2018-03-26T13:11:21.528Z,104.10
2018-03-26T13:13:49.140Z,107.57
2018-03-26T13:16:16.749Z,85.73
2018-03-26T13:18:44.331Z,81.03
2018-03-26T13:21:11.916Z,85.00
2018-03-26T13:23:39.582Z,85.60
2018-03-26T13:26:07.215Z,90.97
2018-03-26T13:28:34.842Z,80.70
2018-03-26T13:31:02.421Z,89.17
2018-03-26T13:33:30.046Z,81.70
2018-03-26T13:35:57.629Z,83.03
2018-03-26T13:38:25.217Z,86.17
2018-03-26T13:40:52.807Z,85.63
2018-03-26T13:43:20.497Z,91.27
2018-03-26T13:45:48.145Z,79.93
2018-03-26T13:48:15.760Z,90.80
2018-03-26T13:50:43.350Z,100.30
2018-03-26T13:53:10.943Z,89.30
2018-03-26T13:55:38.531Z,81.57
2018-03-26T13:58:06.187Z,86.37
2018-03-26T14:00:33.774Z,86.07
2018-03-26T14:03:01.403Z,81.67
2018-03-26T14:05:29.049Z,89.43
2018-03-26T14:07:56.682Z,84.97
2018-03-26T14:10:35.934Z,94.37
2018-03-26T14:13:15.260Z,101.23
2018-03-26T14:15:54.567Z,122.20
2018-03-26T14:18:22.149Z,111.47
2018-03-26T14:20:49.827Z,96.47
2018-03-26T14:23:17.418Z,107.40
2018-03-26T14:25:45.954Z,137.23
2018-03-26T14:28:13.539Z,91.80
2018-03-26T14:30:41.116Z,87.90
2018-03-26T14:33:08.704Z,90.60
2018-03-26T14:35:43.226Z,115.43
2018-03-26T14:38:10.823Z,105.13
2018-03-26T14:40:38.420Z,94.43
2018-03-26T14:43:06.119Z,109.00
2018-03-26T14:45:33.703Z,98.70
2018-03-26T14:48:01.375Z,103.90
2018-03-26T14:50:29.012Z,122.17
2018-03-26T14:52:56.609Z,130.77
2018-03-26T14:55:24.227Z,109.67
2018-03-26T14:57:51.810Z,117.50
2018-03-26T15:00:19.506Z,104.43
2018-03-26T15:02:47.134Z,112.37
2018-03-26T15:05:14.824Z,123.30
2018-03-26T15:07:42.420Z,118.60
2018-03-26T15:10:10.002Z,117.77
2018-03-26T15:12:37.648Z,99.03
2018-03-26T15:15:05.294Z,105.27
2018-03-26T15:17:32.995Z,107.83
2018-03-26T15:20:00.627Z,97.30
2018-03-26T15:22:28.202Z,115.03
2018-03-26T15:24:55.791Z,106.03
2018-03-26T15:27:23.514Z,114.03
2018-03-26T15:29:51.066Z,106.43
2018-03-26T15:32:18.712Z,111.17
2018-03-26T15:34:46.395Z,102.67
2018-03-26T15:37:14.039Z,99.17
2018-03-26T15:39:41.644Z,112.40
2018-03-26T15:42:09.810Z,104.77
2018-03-26T15:44:37.395Z,129.37
2018-03-26T15:47:05.001Z,192.67
2018-03-26T15:49:32.583Z,95.13
2018-03-26T15:52:00.218Z,104.33
2018-03-26T15:54:27.853Z,93.40
2018-03-26T15:56:55.435Z,110.10
2018-03-26T15:59:23.034Z,97.53
2018-03-26T16:01:50.619Z,89.20
2018-03-26T16:04:18.245Z,101.77
2018-03-26T16:06:45.821Z,96.67
2018-03-26T16:09:13.526Z,111.70
2018-03-26T16:11:41.102Z,109.77
2018-03-26T16:14:08.744Z,97.33
2018-03-26T16:16:36.333Z,115.23
2018-03-26T16:19:03.983Z,122.23
2018-03-26T16:21:31.618Z,129.67
2018-03-26T16:23:59.206Z,121.17
2018-03-26T16:26:26.912Z,117.23
2018-03-26T16:28:54.500Z,125.00
2018-03-26T16:31:22.090Z,102.27
2018-03-26T16:33:49.691Z,115.97
2018-03-26T16:36:17.277Z,112.63
2018-03-26T16:38:44.932Z,114.40
2018-03-26T16:41:12.633Z,115.97
2018-03-26T16:43:40.350Z,125.20
2018-03-26T16:46:07.947Z,131.63
2018-03-26T16:48:35.534Z,91.83
2018-03-26T16:51:04.746Z,102.47
2018-03-26T16:53:32.338Z,104.50
2018-03-26T16:55:59.998Z,93.10
2018-03-26T16:58:27.579Z,80.60
2018-03-26T17:00:55.300Z,96.00
2018-03-26T17:03:22.900Z,89.83
2018-03-26T17:05:50.507Z,89.40
2018-03-26T17:08:18.100Z,108.17
2018-03-26T17:10:45.760Z,92.07
2018-03-26T17:13:13.366Z,93.80
2018-03-26T17:15:41.046Z,94.27
2018-03-26T17:18:08.686Z,96.57
2018-03-26T17:20:36.271Z,100.07
2018-03-26T17:23:03.851Z,89.60
2018-03-26T17:25:31.434Z,86.83
2018-03-26T17:27:59.430Z,93.17
2018-03-26T17:30:27.015Z,83.13
2018-03-26T17:32:54.594Z,74.53
2018-03-26T17:35:22.231Z,81.40
2018-03-26T17:37:49.819Z,102.57
2018-03-26T17:40:17.394Z,94.03
2018-03-26T17:42:45.599Z,89.90
2018-03-26T17:45:14.500Z,86.47
2018-03-26T17:47:43.032Z,100.53
2018-03-26T17:50:10.615Z,92.87
2018-03-26T17:52:38.258Z,93.23
2018-03-26T17:55:05.839Z,98.73
2018-03-26T17:57:33.418Z,96.93
2018-03-26T18:00:01.006Z,83.90
2018-03-26T18:02:28.597Z,81.67
2018-03-26T18:04:56.190Z,86.83
2018-03-26T18:07:23.775Z,88.13
2018-03-26T18:09:51.410Z,90.87
2018-03-26T18:12:19.066Z,97.90
2018-03-26T18:14:46.653Z,93.47
2018-03-26T18:17:14.246Z,87.07
2018-03-26T18:19:42.020Z,110.07
2018-03-26T18:22:09.646Z,91.00
2018-03-26T18:24:37.306Z,94.30
2018-03-26T18:27:04.958Z,89.20
2018-03-26T18:29:32.532Z,105.27
2018-03-26T18:32:00.191Z,105.83
2018-03-26T18:34:27.838Z,92.07
2018-03-26T18:36:55.442Z,88.43
2018-03-26T18:39:23.087Z,91.90
2018-03-26T18:41:50.724Z,90.90
2018-03-26T18:44:18.378Z,80.00
2018-03-26T18:46:45.961Z,82.13
2018-03-26T18:49:13.625Z,81.70
2018-03-26T18:51:41.217Z,80.20
2018-03-26T18:54:10.640Z,76.73
2018-03-26T18:56:38.671Z,76.43
2018-03-26T18:59:06.242Z,79.57
2018-03-26T19:01:33.951Z,62.33
2018-03-26T19:04:01.599Z,73.10
2018-03-26T19:06:29.261Z,69.20
2018-03-26T19:08:56.860Z,77.27
2018-03-26T19:11:24.498Z,77.70
2018-03-26T19:13:52.089Z,74.53
2018-03-26T19:16:19.723Z,89.67
2018-03-26T19:18:47.371Z,86.40
2018-03-26T19:21:15.783Z,99.93
2018-03-26T19:23:43.369Z,89.40
2018-03-26T19:26:10.975Z,89.10
2018-03-26T19:28:38.576Z,91.30
2018-03-26T19:31:06.175Z,97.57
2018-03-26T19:33:33.750Z,98.20
2018-03-26T19:36:01.384Z,87.53
2018-03-26T19:38:28.972Z,86.77
2018-03-26T19:40:56.547Z,91.47
2018-03-26T19:43:24.141Z,94.00
2018-03-26T19:45:51.797Z,92.40
2018-03-26T19:48:19.489Z,93.17
2018-03-26T19:50:47.073Z,89.63
2018-03-26T19:53:14.656Z,83.53
2018-03-26T19:55:42.295Z,89.10
2018-03-26T19:58:09.940Z,86.87
2018-03-26T20:00:37.562Z,83.30
2018-03-26T20:03:05.199Z,75.63
2018-03-26T20:05:32.827Z,90.93
2018-03-26T20:08:00.463Z,96.97
2018-03-26T20:10:28.117Z,83.40
2018-03-26T20:12:55.807Z,103.80
2018-03-26T20:15:23.386Z,98.00
2018-03-26T20:17:51.014Z,86.37
2018-03-26T20:20:18.643Z,88.13
2018-03-26T20:22:46.283Z,97.37
2018-03-26T20:25:13.868Z,113.03
2018-03-26T20:27:41.442Z,118.37
2018-03-26T20:30:09.082Z,119.40
2018-03-26T20:32:36.655Z,99.80
2018-03-26T20:35:04.230Z,121.63
2018-03-26T20:37:31.882Z,108.23
2018-03-26T20:39:59.511Z,97.80
2018-03-26T20:42:27.104Z,92.03
2018-03-26T20:44:54.753Z,98.33
2018-03-26T20:47:22.395Z,103.30
2018-03-26T20:49:49.971Z,96.13
2018-03-26T20:52:17.549Z,96.97
2018-03-26T20:54:45.126Z,98.90
2018-03-26T20:57:12.766Z,90.03
2018-03-26T20:59:40.404Z,85.97
2018-03-26T21:02:08.035Z,89.90
2018-03-26T21:04:35.667Z,85.73
2018-03-26T21:07:03.312Z,64.10
2018-03-26T21:09:30.892Z,67.83
2018-03-26T21:11:58.473Z,77.70
2018-03-26T21:14:26.108Z,75.63
2018-03-26T21:16:53.807Z,80.43
2018-03-26T21:19:21.381Z,82.67
2018-03-26T21:21:48.946Z,85.23
2018-03-26T21:24:16.522Z,84.07
2018-03-26T21:26:44.134Z,79.87
2018-03-26T21:29:11.719Z,82.67
2018-03-26T21:31:39.286Z,86.90
2018-03-26T21:34:06.918Z,79.80
2018-03-26T21:36:34.528Z,82.17
2018-03-26T21:39:02.181Z,79.27
2018-03-26T21:41:29.818Z,77.93
2018-03-26T21:43:57.461Z,88.80
2018-03-26T21:46:25.098Z,75.40
2018-03-26T21:48:52.722Z,86.07
2018-03-26T21:51:20.370Z,76.47
2018-03-26T21:53:47.968Z,79.90
2018-03-26T21:56:15.545Z,98.47
2018-03-26T21:58:43.140Z,85.90
2018-03-26T22:01:10.706Z,87.40
2018-03-26T22:03:38.342Z,68.93
2018-03-26T22:06:05.971Z,86.23
2018-03-26T22:08:33.537Z,80.17
2018-03-26T22:11:01.125Z,75.87
2018-03-26T22:13:28.698Z,68.40
2018-03-26T22:15:56.276Z,76.93
2018-03-26T22:18:23.846Z,79.10
2018-03-26T22:20:51.491Z,74.93
2018-03-26T22:23:19.999Z,67.73
2018-03-26T22:25:47.565Z,70.00
2018-03-26T22:28:15.166Z,61.50
2018-03-26T22:30:42.741Z,66.57
2018-03-26T22:33:10.315Z,68.37
2018-03-26T22:35:37.942Z,78.17
2018-03-26T22:38:05.639Z,65.17
2018-03-26T22:40:33.267Z,69.90
2018-03-26T22:43:00.895Z,72.30
2018-03-26T22:45:28.476Z,78.33
2018-03-26T22:47:56.054Z,66.87
2018-03-26T22:50:23.687Z,65.97
2018-03-26T22:52:51.267Z,73.37
2018-03-26T22:55:18.886Z,62.43
2018-03-26T22:57:46.514Z,64.43
2018-03-26T23:00:14.238Z,61.40
2018-03-26T23:02:41.818Z,60.67
2018-03-26T23:05:09.455Z,71.47
2018-03-26T23:07:37.037Z,61.23
2018-03-26T23:10:04.625Z,81.27
2018-03-26T23:12:32.257Z,74.67
2018-03-26T23:14:59.890Z,61.83
2018-03-26T23:17:27.538Z,74.63
2018-03-26T23:19:55.118Z,63.90
2018-03-26T23:22:34.714Z,73.43
2018-03-26T23:25:02.355Z,67.67
2018-03-26T23:27:29.931Z,74.03
2018-03-26T23:29:57.609Z,73.27
2018-03-26T23:32:25.235Z,75.13
2018-03-26T23:34:52.826Z,75.07
2018-03-26T23:37:20.411Z,82.47
2018-03-26T23:39:47.986Z,78.87
2018-03-26T23:42:15.566Z,85.73
2018-03-26T23:44:43.134Z,83.47
2018-03-26T23:47:10.762Z,77.90
2018-03-26T23:49:38.330Z,74.60
2018-03-26T23:52:05.895Z,73.13
2018-03-26T23:54:33.543Z,65.80
2018-03-26T23:57:01.124Z,77.73
2018-03-26T23:59:28.701Z,77.97
